sensor_id;sensor_type;location;lat;lon;timestamp;P1;durP1;ratioP1;P2;durP2;ratioP2
11078;SDS011;5592;49.234;7.268;2023-07-02T00:00:57;16.73;;;6.60;;
11078;SDS011;5592;49.234;7.268;2023-07-02T00:03:24;13.87;;;6.20;;
11078;SDS011;5592;49.234;7.268;2023-07-02T00:05:49;14.70;;;6.20;;
11078;SDS011;5592;49.234;7.268;2023-07-02T00:08:15;12.70;;;6.87;;
11078;SDS011;5592;49.234;7.268;2023-07-02T00:10:43;17.23;;;5.60;;
11078;SDS011;5592;49.234;7.268;2023-07-02T00:13:08;14.90;;;6.30;;
11078;SDS011;5592;49.234;7.268;2023-07-02T00:15:34;5.93;;;5.23;;
11078;SDS011;5592;49.234;7.268;2023-07-02T00:18:00;9.83;;;5.17;;
11078;SDS011;5592;49.234;7.268;2023-07-02T00:20:25;15.70;;;6.30;;
11078;SDS011;5592;49.234;7.268;2023-07-02T00:22:51;12.03;;;5.83;;
11078;SDS011;5592;49.234;7.268;2023-07-02T00:25:16;8.60;;;5.57;;
11078;SDS011;5592;49.234;7.268;2023-07-02T00:27:42;12.63;;;6.43;;
11078;SDS011;5592;49.234;7.268;2023-07-02T00:30:08;13.27;;;6.70;;
11078;SDS011;5592;49.234;7.268;2023-07-02T00:32:34;10.57;;;5.53;;
11078;SDS011;5592;49.234;7.268;2023-07-02T00:34:59;8.80;;;5.60;;
11078;SDS011;5592;49.234;7.268;2023-07-02T00:37:25;11.40;;;6.30;;
11078;SDS011;5592;49.234;7.268;2023-07-02T00:39:50;8.90;;;5.50;;
11078;SDS011;5592;49.234;7.268;2023-07-02T00:42:17;9.87;;;5.57;;
11078;SDS011;5592;49.234;7.268;2023-07-02T00:44:43;7.63;;;5.53;;
11078;SDS011;5592;49.234;7.268;2023-07-02T00:47:09;15.03;;;5.53;;
11078;SDS011;5592;49.234;7.268;2023-07-02T00:49:36;9.50;;;4.60;;
11078;SDS011;5592;49.234;7.268;2023-07-02T00:52:02;13.63;;;5.30;;
11078;SDS011;5592;49.234;7.268;2023-07-02T00:54:28;10.43;;;4.47;;
11078;SDS011;5592;49.234;7.268;2023-07-02T00:56:54;12.50;;;5.23;;
11078;SDS011;5592;49.234;7.268;2023-07-02T00:59:20;16.23;;;5.57;;
11078;SDS011;5592;49.234;7.268;2023-07-02T01:01:46;10.70;;;5.20;;
11078;SDS011;5592;49.234;7.268;2023-07-02T01:04:16;6.97;;;4.73;;
11078;SDS011;5592;49.234;7.268;2023-07-02T01:06:43;6.53;;;4.80;;
11078;SDS011;5592;49.234;7.268;2023-07-02T01:09:10;9.47;;;5.00;;
11078;SDS011;5592;49.234;7.268;2023-07-02T01:16:52;11.77;;;4.70;;
11078;SDS011;5592;49.234;7.268;2023-07-02T01:19:22;14.17;;;5.23;;
11078;SDS011;5592;49.234;7.268;2023-07-02T01:21:58;13.90;;;4.93;;
11078;SDS011;5592;49.234;7.268;2023-07-02T01:24:25;8.90;;;4.90;;
11078;SDS011;5592;49.234;7.268;2023-07-02T01:26:51;13.07;;;4.80;;
11078;SDS011;5592;49.234;7.268;2023-07-02T01:29:17;8.63;;;4.90;;
11078;SDS011;5592;49.234;7.268;2023-07-02T01:31:44;7.23;;;5.10;;
11078;SDS011;5592;49.234;7.268;2023-07-02T01:34:10;8.83;;;5.13;;
11078;SDS011;5592;49.234;7.268;2023-07-02T01:36:36;10.10;;;4.80;;
11078;SDS011;5592;49.234;7.268;2023-07-02T01:39:03;11.20;;;4.70;;
11078;SDS011;5592;49.234;7.268;2023-07-02T01:41:29;7.53;;;4.90;;
11078;SDS011;5592;49.234;7.268;2023-07-02T01:43:54;8.10;;;4.60;;
11078;SDS011;5592;49.234;7.268;2023-07-02T01:46:20;6.67;;;4.50;;
11078;SDS011;5592;49.234;7.268;2023-07-02T01:48:46;12.03;;;4.40;;
11078;SDS011;5592;49.234;7.268;2023-07-02T01:51:12;8.43;;;4.47;;
11078;SDS011;5592;49.234;7.268;2023-07-02T01:53:38;9.10;;;4.97;;
11078;SDS011;5592;49.234;7.268;2023-07-02T01:56:04;9.33;;;4.27;;
11078;SDS011;5592;49.234;7.268;2023-07-02T01:58:29;11.90;;;4.40;;
11078;SDS011;5592;49.234;7.268;2023-07-02T02:00:55;10.50;;;4.27;;
11078;SDS011;5592;49.234;7.268;2023-07-02T02:03:21;15.07;;;5.80;;
11078;SDS011;5592;49.234;7.268;2023-07-02T02:05:47;7.70;;;4.37;;
11078;SDS011;5592;49.234;7.268;2023-07-02T02:08:13;10.37;;;3.50;;
11078;SDS011;5592;49.234;7.268;2023-07-02T02:10:38;5.40;;;3.70;;
11078;SDS011;5592;49.234;7.268;2023-07-02T02:13:04;11.43;;;4.10;;
11078;SDS011;5592;49.234;7.268;2023-07-02T02:15:30;8.50;;;4.27;;
11078;SDS011;5592;49.234;7.268;2023-07-02T02:17:55;16.60;;;3.87;;
11078;SDS011;5592;49.234;7.268;2023-07-02T02:20:21;7.90;;;4.37;;
11078;SDS011;5592;49.234;7.268;2023-07-02T02:22:46;12.53;;;4.47;;
11078;SDS011;5592;49.234;7.268;2023-07-02T02:25:12;7.63;;;3.90;;
11078;SDS011;5592;49.234;7.268;2023-07-02T02:27:37;13.70;;;4.80;;
11078;SDS011;5592;49.234;7.268;2023-07-02T02:30:03;9.63;;;4.23;;
11078;SDS011;5592;49.234;7.268;2023-07-02T02:32:29;8.93;;;4.90;;
11078;SDS011;5592;49.234;7.268;2023-07-02T02:34:55;16.13;;;4.00;;
11078;SDS011;5592;49.234;7.268;2023-07-02T02:37:20;14.73;;;4.77;;
11078;SDS011;5592;49.234;7.268;2023-07-02T02:39:47;8.40;;;3.80;;
11078;SDS011;5592;49.234;7.268;2023-07-02T02:42:13;9.63;;;4.13;;
11078;SDS011;5592;49.234;7.268;2023-07-02T02:44:38;9.00;;;5.67;;
11078;SDS011;5592;49.234;7.268;2023-07-02T02:47:04;8.43;;;5.17;;
11078;SDS011;5592;49.234;7.268;2023-07-02T02:49:30;10.40;;;4.90;;
11078;SDS011;5592;49.234;7.268;2023-07-02T02:51:56;13.60;;;5.33;;
11078;SDS011;5592;49.234;7.268;2023-07-02T02:54:21;12.60;;;5.40;;
11078;SDS011;5592;49.234;7.268;2023-07-02T02:56:47;13.70;;;5.00;;
11078;SDS011;5592;49.234;7.268;2023-07-02T02:59:12;11.90;;;5.10;;
11078;SDS011;5592;49.234;7.268;2023-07-02T03:01:38;10.23;;;5.30;;
11078;SDS011;5592;49.234;7.268;2023-07-02T03:04:04;10.77;;;6.43;;
11078;SDS011;5592;49.234;7.268;2023-07-02T03:06:33;26.20;;;5.43;;
11078;SDS011;5592;49.234;7.268;2023-07-02T03:08:59;12.90;;;5.80;;
11078;SDS011;5592;49.234;7.268;2023-07-02T03:11:25;14.17;;;6.23;;
11078;SDS011;5592;49.234;7.268;2023-07-02T03:13:50;14.13;;;6.80;;
11078;SDS011;5592;49.234;7.268;2023-07-02T03:16:16;17.73;;;6.63;;
11078;SDS011;5592;49.234;7.268;2023-07-02T03:18:41;17.03;;;5.67;;
11078;SDS011;5592;49.234;7.268;2023-07-02T03:21:07;9.37;;;5.80;;
11078;SDS011;5592;49.234;7.268;2023-07-02T03:23:32;15.70;;;6.13;;
11078;SDS011;5592;49.234;7.268;2023-07-02T03:25:58;13.63;;;5.87;;
11078;SDS011;5592;49.234;7.268;2023-07-02T03:28:23;20.07;;;6.60;;
11078;SDS011;5592;49.234;7.268;2023-07-02T03:30:49;9.73;;;5.30;;
11078;SDS011;5592;49.234;7.268;2023-07-02T03:33:14;13.10;;;6.20;;
11078;SDS011;5592;49.234;7.268;2023-07-02T03:35:40;13.90;;;6.43;;
11078;SDS011;5592;49.234;7.268;2023-07-02T03:38:05;9.57;;;5.90;;
11078;SDS011;5592;49.234;7.268;2023-07-02T03:40:31;17.00;;;6.70;;
11078;SDS011;5592;49.234;7.268;2023-07-02T03:42:57;10.10;;;6.57;;
11078;SDS011;5592;49.234;7.268;2023-07-02T03:45:22;16.70;;;7.70;;
11078;SDS011;5592;49.234;7.268;2023-07-02T03:47:51;15.23;;;7.77;;
11078;SDS011;5592;49.234;7.268;2023-07-02T03:50:17;14.27;;;7.30;;
11078;SDS011;5592;49.234;7.268;2023-07-02T03:52:43;12.30;;;6.80;;
11078;SDS011;5592;49.234;7.268;2023-07-02T03:55:08;13.90;;;6.77;;
11078;SDS011;5592;49.234;7.268;2023-07-02T03:57:34;10.13;;;6.87;;
11078;SDS011;5592;49.234;7.268;2023-07-02T03:59:59;12.07;;;7.30;;
11078;SDS011;5592;49.234;7.268;2023-07-02T04:02:25;14.60;;;7.80;;
11078;SDS011;5592;49.234;7.268;2023-07-02T04:04:50;14.30;;;7.67;;
11078;SDS011;5592;49.234;7.268;2023-07-02T04:07:16;17.60;;;7.93;;
11078;SDS011;5592;49.234;7.268;2023-07-02T04:09:41;15.80;;;8.07;;
11078;SDS011;5592;49.234;7.268;2023-07-02T04:12:07;16.17;;;7.50;;
11078;SDS011;5592;49.234;7.268;2023-07-02T04:14:33;12.53;;;7.97;;
11078;SDS011;5592;49.234;7.268;2023-07-02T04:16:58;13.90;;;7.73;;
11078;SDS011;5592;49.234;7.268;2023-07-02T04:19:24;15.03;;;7.40;;
11078;SDS011;5592;49.234;7.268;2023-07-02T04:21:49;13.87;;;7.47;;
11078;SDS011;5592;49.234;7.268;2023-07-02T04:24:15;18.23;;;7.10;;
11078;SDS011;5592;49.234;7.268;2023-07-02T04:26:40;15.50;;;6.70;;
11078;SDS011;5592;49.234;7.268;2023-07-02T04:29:07;12.73;;;7.03;;
11078;SDS011;5592;49.234;7.268;2023-07-02T04:31:36;16.27;;;7.03;;
11078;SDS011;5592;49.234;7.268;2023-07-02T04:34:02;12.07;;;6.50;;
11078;SDS011;5592;49.234;7.268;2023-07-02T04:36:28;13.30;;;6.90;;
11078;SDS011;5592;49.234;7.268;2023-07-02T04:38:53;11.93;;;7.03;;
11078;SDS011;5592;49.234;7.268;2023-07-02T04:41:19;16.67;;;6.63;;
11078;SDS011;5592;49.234;7.268;2023-07-02T04:43:45;14.90;;;6.63;;
11078;SDS011;5592;49.234;7.268;2023-07-02T04:46:10;17.77;;;7.23;;
11078;SDS011;5592;49.234;7.268;2023-07-02T04:48:37;11.23;;;6.40;;
11078;SDS011;5592;49.234;7.268;2023-07-02T04:51:03;11.03;;;6.50;;
11078;SDS011;5592;49.234;7.268;2023-07-02T04:53:28;11.90;;;6.13;;
11078;SDS011;5592;49.234;7.268;2023-07-02T04:55:54;13.90;;;6.53;;
11078;SDS011;5592;49.234;7.268;2023-07-02T04:58:21;16.17;;;6.40;;
11078;SDS011;5592;49.234;7.268;2023-07-02T05:00:47;11.63;;;6.77;;
11078;SDS011;5592;49.234;7.268;2023-07-02T05:03:12;21.73;;;6.60;;
11078;SDS011;5592;49.234;7.268;2023-07-02T05:05:38;12.77;;;6.17;;
11078;SDS011;5592;49.234;7.268;2023-07-02T05:08:03;12.70;;;7.33;;
11078;SDS011;5592;49.234;7.268;2023-07-02T05:10:32;16.70;;;6.63;;
11078;SDS011;5592;49.234;7.268;2023-07-02T05:12:57;11.10;;;6.60;;
11078;SDS011;5592;49.234;7.268;2023-07-02T05:15:23;21.30;;;7.73;;
11078;SDS011;5592;49.234;7.268;2023-07-02T05:17:49;16.33;;;7.67;;
11078;SDS011;5592;49.234;7.268;2023-07-02T05:20:14;13.87;;;7.67;;
11078;SDS011;5592;49.234;7.268;2023-07-02T05:22:43;20.00;;;8.53;;
11078;SDS011;5592;49.234;7.268;2023-07-02T05:25:08;21.83;;;8.40;;
11078;SDS011;5592;49.234;7.268;2023-07-02T05:27:34;16.00;;;9.30;;
11078;SDS011;5592;49.234;7.268;2023-07-02T05:29:59;14.90;;;8.37;;
11078;SDS011;5592;49.234;7.268;2023-07-02T05:32:25;19.40;;;11.33;;
11078;SDS011;5592;49.234;7.268;2023-07-02T05:34:51;25.80;;;10.00;;
11078;SDS011;5592;49.234;7.268;2023-07-02T05:37:17;19.97;;;11.63;;
11078;SDS011;5592;49.234;7.268;2023-07-02T05:39:42;22.83;;;12.73;;
11078;SDS011;5592;49.234;7.268;2023-07-02T05:42:08;20.30;;;11.73;;
11078;SDS011;5592;49.234;7.268;2023-07-02T05:44:33;20.57;;;12.60;;
11078;SDS011;5592;49.234;7.268;2023-07-02T05:46:59;19.23;;;12.77;;
11078;SDS011;5592;49.234;7.268;2023-07-02T05:49:24;25.60;;;14.37;;
11078;SDS011;5592;49.234;7.268;2023-07-02T05:51:51;27.07;;;13.73;;
11078;SDS011;5592;49.234;7.268;2023-07-02T05:54:17;22.90;;;13.10;;
11078;SDS011;5592;49.234;7.268;2023-07-02T05:56:43;18.70;;;13.60;;
11078;SDS011;5592;49.234;7.268;2023-07-02T05:59:08;24.40;;;14.30;;
11078;SDS011;5592;49.234;7.268;2023-07-02T06:01:34;22.63;;;13.33;;
11078;SDS011;5592;49.234;7.268;2023-07-02T06:03:59;23.13;;;14.07;;
11078;SDS011;5592;49.234;7.268;2023-07-02T06:06:25;23.77;;;15.23;;
11078;SDS011;5592;49.234;7.268;2023-07-02T06:08:50;21.33;;;14.33;;
11078;SDS011;5592;49.234;7.268;2023-07-02T06:11:16;22.80;;;14.40;;
11078;SDS011;5592;49.234;7.268;2023-07-02T06:13:42;23.57;;;14.10;;
11078;SDS011;5592;49.234;7.268;2023-07-02T06:16:08;27.10;;;15.27;;
11078;SDS011;5592;49.234;7.268;2023-07-02T06:18:33;23.47;;;15.13;;
11078;SDS011;5592;49.234;7.268;2023-07-02T06:20:59;38.10;;;16.83;;
11078;SDS011;5592;49.234;7.268;2023-07-02T06:23:25;24.80;;;14.83;;
11078;SDS011;5592;49.234;7.268;2023-07-02T06:25:50;26.87;;;16.23;;
11078;SDS011;5592;49.234;7.268;2023-07-02T06:28:25;25.40;;;16.13;;
11078;SDS011;5592;49.234;7.268;2023-07-02T06:30:53;31.27;;;17.20;;
11078;SDS011;5592;49.234;7.268;2023-07-02T06:33:19;25.90;;;15.67;;
11078;SDS011;5592;49.234;7.268;2023-07-02T06:35:44;32.23;;;16.70;;
11078;SDS011;5592;49.234;7.268;2023-07-02T06:38:10;29.53;;;16.30;;
11078;SDS011;5592;49.234;7.268;2023-07-02T06:40:36;24.90;;;16.00;;
11078;SDS011;5592;49.234;7.268;2023-07-02T06:43:01;23.50;;;16.93;;
11078;SDS011;5592;49.234;7.268;2023-07-02T06:45:27;26.33;;;17.30;;
11078;SDS011;5592;49.234;7.268;2023-07-02T06:47:53;26.07;;;15.87;;
11078;SDS011;5592;49.234;7.268;2023-07-02T06:50:19;24.00;;;16.40;;
11078;SDS011;5592;49.234;7.268;2023-07-02T06:52:44;34.60;;;17.20;;
11078;SDS011;5592;49.234;7.268;2023-07-02T06:55:10;24.33;;;16.57;;
11078;SDS011;5592;49.234;7.268;2023-07-02T06:57:41;27.20;;;17.37;;
11078;SDS011;5592;49.234;7.268;2023-07-02T07:00:08;26.17;;;18.37;;
11078;SDS011;5592;49.234;7.268;2023-07-02T07:02:34;26.40;;;17.87;;
11078;SDS011;5592;49.234;7.268;2023-07-02T07:04:59;22.00;;;16.17;;
11078;SDS011;5592;49.234;7.268;2023-07-02T07:07:25;26.80;;;18.60;;
11078;SDS011;5592;49.234;7.268;2023-07-02T07:09:50;30.73;;;17.80;;
11078;SDS011;5592;49.234;7.268;2023-07-02T07:12:16;25.77;;;19.30;;
11078;SDS011;5592;49.234;7.268;2023-07-02T07:14:41;24.40;;;17.70;;
11078;SDS011;5592;49.234;7.268;2023-07-02T07:17:08;28.43;;;19.80;;
11078;SDS011;5592;49.234;7.268;2023-07-02T07:19:34;27.90;;;18.67;;
11078;SDS011;5592;49.234;7.268;2023-07-02T07:21:59;29.13;;;18.07;;
11078;SDS011;5592;49.234;7.268;2023-07-02T07:24:25;31.13;;;18.73;;
11078;SDS011;5592;49.234;7.268;2023-07-02T07:26:50;27.80;;;17.77;;
11078;SDS011;5592;49.234;7.268;2023-07-02T07:29:16;30.50;;;19.10;;
11078;SDS011;5592;49.234;7.268;2023-07-02T07:31:41;29.63;;;19.63;;
11078;SDS011;5592;49.234;7.268;2023-07-02T07:34:07;29.17;;;20.20;;
11078;SDS011;5592;49.234;7.268;2023-07-02T07:36:32;26.30;;;19.63;;
11078;SDS011;5592;49.234;7.268;2023-07-02T07:38:58;31.43;;;18.87;;
11078;SDS011;5592;49.234;7.268;2023-07-02T07:41:23;28.10;;;19.53;;
11078;SDS011;5592;49.234;7.268;2023-07-02T07:43:49;29.73;;;19.27;;
11078;SDS011;5592;49.234;7.268;2023-07-02T07:46:14;28.63;;;18.90;;
11078;SDS011;5592;49.234;7.268;2023-07-02T07:48:40;27.97;;;18.30;;
11078;SDS011;5592;49.234;7.268;2023-07-02T07:51:05;34.00;;;19.20;;
11078;SDS011;5592;49.234;7.268;2023-07-02T07:53:31;37.60;;;20.87;;
11078;SDS011;5592;49.234;7.268;2023-07-02T07:55:57;32.83;;;19.37;;
11078;SDS011;5592;49.234;7.268;2023-07-02T07:58:23;28.47;;;18.87;;
11078;SDS011;5592;49.234;7.268;2023-07-02T08:00:49;31.13;;;18.87;;
11078;SDS011;5592;49.234;7.268;2023-07-02T08:03:14;31.30;;;19.50;;
11078;SDS011;5592;49.234;7.268;2023-07-02T08:05:40;28.77;;;18.03;;
11078;SDS011;5592;49.234;7.268;2023-07-02T08:08:05;31.27;;;19.33;;
11078;SDS011;5592;49.234;7.268;2023-07-02T08:10:33;33.90;;;19.67;;
11078;SDS011;5592;49.234;7.268;2023-07-02T08:12:58;34.10;;;20.17;;
11078;SDS011;5592;49.234;7.268;2023-07-02T08:15:24;30.57;;;19.13;;
11078;SDS011;5592;49.234;7.268;2023-07-02T08:17:49;34.17;;;20.90;;
11078;SDS011;5592;49.234;7.268;2023-07-02T08:20:19;37.03;;;20.23;;
11078;SDS011;5592;49.234;7.268;2023-07-02T08:22:44;34.17;;;19.53;;
11078;SDS011;5592;49.234;7.268;2023-07-02T08:25:10;35.03;;;19.50;;
11078;SDS011;5592;49.234;7.268;2023-07-02T08:27:35;34.47;;;21.27;;
11078;SDS011;5592;49.234;7.268;2023-07-02T08:30:01;32.13;;;20.20;;
11078;SDS011;5592;49.234;7.268;2023-07-02T08:32:26;26.67;;;18.30;;
11078;SDS011;5592;49.234;7.268;2023-07-02T08:34:52;30.07;;;18.27;;
11078;SDS011;5592;49.234;7.268;2023-07-02T08:37:18;38.93;;;19.60;;
11078;SDS011;5592;49.234;7.268;2023-07-02T08:39:45;34.80;;;19.20;;
11078;SDS011;5592;49.234;7.268;2023-07-02T08:42:10;28.60;;;18.07;;
11078;SDS011;5592;49.234;7.268;2023-07-02T08:44:36;38.33;;;19.10;;
11078;SDS011;5592;49.234;7.268;2023-07-02T08:47:03;54.57;;;18.90;;
11078;SDS011;5592;49.234;7.268;2023-07-02T08:49:28;30.87;;;18.70;;
11078;SDS011;5592;49.234;7.268;2023-07-02T08:51:54;31.23;;;17.90;;
11078;SDS011;5592;49.234;7.268;2023-07-02T08:54:20;29.90;;;18.70;;
11078;SDS011;5592;49.234;7.268;2023-07-02T08:56:45;31.17;;;16.80;;
11078;SDS011;5592;49.234;7.268;2023-07-02T08:59:13;31.27;;;18.77;;
11078;SDS011;5592;49.234;7.268;2023-07-02T09:01:48;31.60;;;17.13;;
11078;SDS011;5592;49.234;7.268;2023-07-02T09:06:45;34.30;;;18.30;;
11078;SDS011;5592;49.234;7.268;2023-07-02T09:09:11;33.97;;;18.90;;
11078;SDS011;5592;49.234;7.268;2023-07-02T09:11:46;31.33;;;19.53;;
11078;SDS011;5592;49.234;7.268;2023-07-02T09:14:23;32.80;;;19.10;;
11078;SDS011;5592;49.234;7.268;2023-07-02T09:17:02;30.97;;;17.77;;
11078;SDS011;5592;49.234;7.268;2023-07-02T09:19:29;26.70;;;17.57;;
11078;SDS011;5592;49.234;7.268;2023-07-02T09:21:56;33.97;;;18.13;;
11078;SDS011;5592;49.234;7.268;2023-07-02T09:24:24;28.50;;;17.60;;
11078;SDS011;5592;49.234;7.268;2023-07-02T09:26:54;26.90;;;16.67;;
11078;SDS011;5592;49.234;7.268;2023-07-02T09:29:24;26.07;;;16.20;;
11078;SDS011;5592;49.234;7.268;2023-07-02T09:31:57;26.00;;;16.67;;
11078;SDS011;5592;49.234;7.268;2023-07-02T09:34:31;24.40;;;15.70;;
11078;SDS011;5592;49.234;7.268;2023-07-02T09:36:58;24.20;;;15.63;;
11078;SDS011;5592;49.234;7.268;2023-07-02T09:39:28;27.27;;;16.57;;
11078;SDS011;5592;49.234;7.268;2023-07-02T09:41:55;22.47;;;16.27;;
11078;SDS011;5592;49.234;7.268;2023-07-02T09:44:23;23.07;;;15.90;;
11078;SDS011;5592;49.234;7.268;2023-07-02T09:47:04;23.90;;;16.63;;
11078;SDS011;5592;49.234;7.268;2023-07-02T09:49:34;25.83;;;17.20;;
11078;SDS011;5592;49.234;7.268;2023-07-02T09:52:02;25.90;;;16.13;;
11078;SDS011;5592;49.234;7.268;2023-07-02T09:54:31;25.37;;;16.10;;
11078;SDS011;5592;49.234;7.268;2023-07-02T09:56:58;24.50;;;15.37;;
11078;SDS011;5592;49.234;7.268;2023-07-02T09:59:24;33.80;;;16.97;;
11078;SDS011;5592;49.234;7.268;2023-07-02T10:01:50;23.43;;;15.40;;
11078;SDS011;5592;49.234;7.268;2023-07-02T10:04:17;28.37;;;15.93;;
11078;SDS011;5592;49.234;7.268;2023-07-02T10:06:47;26.93;;;15.77;;
11078;SDS011;5592;49.234;7.268;2023-07-02T10:09:15;29.17;;;15.47;;
11078;SDS011;5592;49.234;7.268;2023-07-02T10:11:41;27.17;;;16.47;;
11078;SDS011;5592;49.234;7.268;2023-07-02T10:14:07;25.70;;;15.90;;
11078;SDS011;5592;49.234;7.268;2023-07-02T10:16:32;29.97;;;15.60;;
11078;SDS011;5592;49.234;7.268;2023-07-02T10:19:07;25.40;;;16.13;;
11078;SDS011;5592;49.234;7.268;2023-07-02T10:21:36;28.87;;;17.00;;
11078;SDS011;5592;49.234;7.268;2023-07-02T10:26:38;32.63;;;17.27;;
11078;SDS011;5592;49.234;7.268;2023-07-02T10:29:03;28.93;;;16.30;;
11078;SDS011;5592;49.234;7.268;2023-07-02T10:31:30;25.00;;;17.30;;
11078;SDS011;5592;49.234;7.268;2023-07-02T10:33:56;31.60;;;16.93;;
11078;SDS011;5592;49.234;7.268;2023-07-02T10:36:22;28.73;;;16.60;;
11078;SDS011;5592;49.234;7.268;2023-07-02T10:38:49;31.30;;;16.90;;
11078;SDS011;5592;49.234;7.268;2023-07-02T10:41:28;29.63;;;17.10;;
11078;SDS011;5592;49.234;7.268;2023-07-02T10:43:56;27.53;;;16.53;;
11078;SDS011;5592;49.234;7.268;2023-07-02T10:46:48;28.40;;;17.17;;
11078;SDS011;5592;49.234;7.268;2023-07-02T10:49:16;24.77;;;16.87;;
11078;SDS011;5592;49.234;7.268;2023-07-02T10:51:56;24.10;;;15.90;;
11078;SDS011;5592;49.234;7.268;2023-07-02T10:54:22;29.97;;;15.70;;
11078;SDS011;5592;49.234;7.268;2023-07-02T10:56:48;30.73;;;16.17;;
11078;SDS011;5592;49.234;7.268;2023-07-02T10:59:23;26.20;;;15.97;;
11078;SDS011;5592;49.234;7.268;2023-07-02T11:01:50;39.00;;;17.97;;
11078;SDS011;5592;49.234;7.268;2023-07-02T11:04:15;25.67;;;15.40;;
11078;SDS011;5592;49.234;7.268;2023-07-02T11:06:41;30.50;;;16.07;;
11078;SDS011;5592;49.234;7.268;2023-07-02T11:09:15;23.83;;;14.30;;
11078;SDS011;5592;49.234;7.268;2023-07-02T11:11:49;29.07;;;16.33;;
11078;SDS011;5592;49.234;7.268;2023-07-02T11:14:25;26.33;;;17.27;;
11078;SDS011;5592;49.234;7.268;2023-07-02T11:16:55;24.73;;;15.63;;
11078;SDS011;5592;49.234;7.268;2023-07-02T11:19:21;29.20;;;14.80;;
11078;SDS011;5592;49.234;7.268;2023-07-02T11:21:50;28.77;;;15.60;;
11078;SDS011;5592;49.234;7.268;2023-07-02T11:24:25;28.20;;;15.47;;
11078;SDS011;5592;49.234;7.268;2023-07-02T11:26:53;31.40;;;16.40;;
11078;SDS011;5592;49.234;7.268;2023-07-02T11:29:19;28.00;;;16.60;;
11078;SDS011;5592;49.234;7.268;2023-07-02T11:31:44;23.40;;;15.87;;
11078;SDS011;5592;49.234;7.268;2023-07-02T11:34:16;33.03;;;16.70;;
11078;SDS011;5592;49.234;7.268;2023-07-02T11:36:43;25.50;;;14.63;;
11078;SDS011;5592;49.234;7.268;2023-07-02T11:39:10;25.73;;;16.07;;
11078;SDS011;5592;49.234;7.268;2023-07-02T11:41:37;30.77;;;16.07;;
11078;SDS011;5592;49.234;7.268;2023-07-02T11:44:07;23.50;;;15.30;;
11078;SDS011;5592;49.234;7.268;2023-07-02T11:46:33;23.23;;;14.53;;
11078;SDS011;5592;49.234;7.268;2023-07-02T11:49:00;24.47;;;15.13;;
11078;SDS011;5592;49.234;7.268;2023-07-02T11:51:26;26.10;;;16.13;;
11078;SDS011;5592;49.234;7.268;2023-07-02T11:53:52;22.20;;;14.30;;
11078;SDS011;5592;49.234;7.268;2023-07-02T11:56:17;21.00;;;13.83;;
11078;SDS011;5592;49.234;7.268;2023-07-02T11:58:44;26.80;;;16.07;;
11078;SDS011;5592;49.234;7.268;2023-07-02T12:01:09;22.90;;;14.20;;
11078;SDS011;5592;49.234;7.268;2023-07-02T12:03:35;26.17;;;15.50;;
11078;SDS011;5592;49.234;7.268;2023-07-02T12:06:00;27.90;;;15.53;;
11078;SDS011;5592;49.234;7.268;2023-07-02T12:08:26;25.60;;;14.77;;
11078;SDS011;5592;49.234;7.268;2023-07-02T12:10:52;27.83;;;14.73;;
11078;SDS011;5592;49.234;7.268;2023-07-02T12:13:18;28.37;;;15.50;;
11078;SDS011;5592;49.234;7.268;2023-07-02T12:15:45;26.97;;;16.57;;
11078;SDS011;5592;49.234;7.268;2023-07-02T12:18:12;22.80;;;15.17;;
11078;SDS011;5592;49.234;7.268;2023-07-02T12:20:38;24.73;;;15.73;;
11078;SDS011;5592;49.234;7.268;2023-07-02T12:23:07;24.83;;;15.57;;
11078;SDS011;5592;49.234;7.268;2023-07-02T12:25:32;34.77;;;17.90;;
11078;SDS011;5592;49.234;7.268;2023-07-02T12:27:58;26.17;;;15.90;;
11078;SDS011;5592;49.234;7.268;2023-07-02T12:30:24;29.80;;;16.93;;
11078;SDS011;5592;49.234;7.268;2023-07-02T12:32:49;26.67;;;16.50;;
11078;SDS011;5592;49.234;7.268;2023-07-02T12:35:15;27.87;;;17.10;;
11078;SDS011;5592;49.234;7.268;2023-07-02T12:37:44;25.43;;;16.27;;
11078;SDS011;5592;49.234;7.268;2023-07-02T12:40:14;32.90;;;16.27;;
11078;SDS011;5592;49.234;7.268;2023-07-02T12:42:42;32.33;;;14.97;;
11078;SDS011;5592;49.234;7.268;2023-07-02T12:45:10;23.80;;;15.30;;
11078;SDS011;5592;49.234;7.268;2023-07-02T12:47:40;28.90;;;15.80;;
11078;SDS011;5592;49.234;7.268;2023-07-02T12:50:06;29.10;;;15.10;;
11078;SDS011;5592;49.234;7.268;2023-07-02T12:52:33;25.53;;;15.53;;
11078;SDS011;5592;49.234;7.268;2023-07-02T12:54:59;23.77;;;16.17;;
11078;SDS011;5592;49.234;7.268;2023-07-02T12:57:25;27.43;;;16.43;;
11078;SDS011;5592;49.234;7.268;2023-07-02T12:59:52;27.60;;;16.10;;
11078;SDS011;5592;49.234;7.268;2023-07-02T13:02:21;26.73;;;15.63;;
11078;SDS011;5592;49.234;7.268;2023-07-02T13:04:48;29.30;;;14.10;;
11078;SDS011;5592;49.234;7.268;2023-07-02T13:07:13;26.03;;;14.90;;
11078;SDS011;5592;49.234;7.268;2023-07-02T13:09:39;27.03;;;14.73;;
11078;SDS011;5592;49.234;7.268;2023-07-02T13:12:05;25.50;;;15.23;;
11078;SDS011;5592;49.234;7.268;2023-07-02T13:14:32;28.83;;;14.60;;
11078;SDS011;5592;49.234;7.268;2023-07-02T13:16:58;25.50;;;15.83;;
11078;SDS011;5592;49.234;7.268;2023-07-02T13:19:28;24.23;;;15.47;;
11078;SDS011;5592;49.234;7.268;2023-07-02T13:21:53;29.60;;;14.53;;
11078;SDS011;5592;49.234;7.268;2023-07-02T13:24:19;25.40;;;15.03;;
11078;SDS011;5592;49.234;7.268;2023-07-02T13:26:44;27.23;;;14.90;;
11078;SDS011;5592;49.234;7.268;2023-07-02T13:29:10;26.83;;;15.13;;
11078;SDS011;5592;49.234;7.268;2023-07-02T13:31:39;30.40;;;15.10;;
11078;SDS011;5592;49.234;7.268;2023-07-02T13:34:04;25.07;;;15.60;;
11078;SDS011;5592;49.234;7.268;2023-07-02T13:36:30;33.57;;;15.80;;
11078;SDS011;5592;49.234;7.268;2023-07-02T13:38:55;26.60;;;15.97;;
11078;SDS011;5592;49.234;7.268;2023-07-02T13:41:21;27.37;;;15.67;;
11078;SDS011;5592;49.234;7.268;2023-07-02T13:43:46;22.70;;;14.63;;
11078;SDS011;5592;49.234;7.268;2023-07-02T13:46:12;29.03;;;15.80;;
11078;SDS011;5592;49.234;7.268;2023-07-02T13:48:38;31.50;;;15.90;;
11078;SDS011;5592;49.234;7.268;2023-07-02T13:51:04;22.13;;;14.70;;
11078;SDS011;5592;49.234;7.268;2023-07-02T13:53:30;26.10;;;15.70;;
11078;SDS011;5592;49.234;7.268;2023-07-02T13:55:57;28.90;;;16.93;;
11078;SDS011;5592;49.234;7.268;2023-07-02T13:58:22;25.83;;;14.63;;
11078;SDS011;5592;49.234;7.268;2023-07-02T14:00:48;25.40;;;15.07;;
11078;SDS011;5592;49.234;7.268;2023-07-02T14:03:14;24.33;;;15.53;;
11078;SDS011;5592;49.234;7.268;2023-07-02T14:05:39;20.73;;;14.30;;
11078;SDS011;5592;49.234;7.268;2023-07-02T14:08:05;21.50;;;13.63;;
11078;SDS011;5592;49.234;7.268;2023-07-02T14:10:31;26.40;;;14.90;;
11078;SDS011;5592;49.234;7.268;2023-07-02T14:12:56;26.80;;;13.67;;
11078;SDS011;5592;49.234;7.268;2023-07-02T14:15:23;25.23;;;13.80;;
11078;SDS011;5592;49.234;7.268;2023-07-02T14:17:50;22.63;;;13.77;;
11078;SDS011;5592;49.234;7.268;2023-07-02T14:20:15;28.47;;;15.27;;
11078;SDS011;5592;49.234;7.268;2023-07-02T14:22:41;26.37;;;13.77;;
11078;SDS011;5592;49.234;7.268;2023-07-02T14:25:07;22.90;;;14.00;;
11078;SDS011;5592;49.234;7.268;2023-07-02T14:27:33;23.93;;;14.20;;
11078;SDS011;5592;49.234;7.268;2023-07-02T14:29:58;27.63;;;14.90;;
11078;SDS011;5592;49.234;7.268;2023-07-02T14:32:28;22.60;;;14.37;;
11078;SDS011;5592;49.234;7.268;2023-07-02T14:34:54;18.20;;;12.90;;
11078;SDS011;5592;49.234;7.268;2023-07-02T14:37:19;26.10;;;14.00;;
11078;SDS011;5592;49.234;7.268;2023-07-02T14:39:45;28.30;;;14.57;;
11078;SDS011;5592;49.234;7.268;2023-07-02T14:42:10;24.70;;;14.40;;
11078;SDS011;5592;49.234;7.268;2023-07-02T14:44:36;29.47;;;14.40;;
11078;SDS011;5592;49.234;7.268;2023-07-02T14:47:01;23.93;;;13.87;;